createdAt,value
2018-07-11T00:00:50.694Z,99.99
2018-07-11T00:01:50.015Z,99.99
2018-07-11T00:02:50.025Z,99.99
2018-07-11T00:03:49.984Z,99.99
2018-07-11T00:04:49.960Z,99.99
2018-07-11T00:05:49.964Z,99.99
2018-07-11T00:06:49.958Z,99.99
2018-07-11T00:07:49.950Z,99.99
2018-07-11T00:08:49.913Z,99.99
2018-07-11T00:09:49.903Z,99.99
2018-07-11T00:10:49.888Z,99.99
2018-07-11T00:11:49.879Z,99.99
2018-07-11T00:12:49.906Z,99.99
2018-07-11T00:13:49.877Z,99.99
2018-07-11T00:14:49.882Z,99.99
2018-07-11T00:15:49.841Z,99.99
2018-07-11T00:16:49.832Z,99.99
2018-07-11T00:17:49.824Z,99.99
2018-07-11T00:18:49.831Z,99.99
2018-07-11T00:19:49.843Z,99.99
2018-07-11T00:20:49.780Z,99.99
2018-07-11T00:21:49.796Z,99.99
2018-07-11T00:22:49.810Z,99.99
2018-07-11T00:23:49.750Z,99.99
2018-07-11T00:24:49.753Z,99.99
2018-07-11T00:25:49.729Z,99.99
2018-07-11T00:26:49.740Z,99.99
2018-07-11T00:27:49.710Z,99.99
2018-07-11T00:28:49.699Z,99.99
2018-07-11T00:29:49.687Z,99.99
2018-07-11T00:30:49.674Z,99.99
2018-07-11T00:31:49.663Z,99.99
2018-07-11T00:32:49.677Z,99.99
2018-07-11T00:33:49.679Z,99.99
2018-07-11T00:34:49.665Z,99.99
2018-07-11T00:35:49.621Z,99.99
2018-07-11T00:36:49.621Z,99.99
2018-07-11T00:37:49.600Z,99.99
2018-07-11T00:38:49.617Z,99.99
2018-07-11T00:39:49.577Z,99.99
2018-07-11T00:40:49.573Z,99.99
2018-07-11T00:41:49.551Z,99.99
2018-07-11T00:42:49.544Z,99.99
2018-07-11T00:43:49.555Z,99.99
2018-07-11T00:44:49.518Z,99.99
2018-07-11T00:45:49.526Z,99.99
2018-07-11T00:46:49.503Z,99.99
2018-07-11T00:47:49.497Z,99.99
2018-07-11T00:48:49.519Z,99.99
2018-07-11T00:49:49.468Z,99.99
2018-07-11T00:50:49.450Z,99.99
2018-07-11T00:51:49.451Z,99.99
2018-07-11T00:52:49.436Z,99.99
2018-07-11T00:53:49.448Z,99.99
2018-07-11T00:54:49.421Z,99.99
2018-07-11T00:55:49.403Z,99.99
2018-07-11T00:56:49.390Z,99.99
2018-07-11T00:57:49.384Z,99.99
2018-07-11T00:58:49.394Z,99.99
2018-07-11T00:59:49.361Z,99.99
2018-07-11T01:00:49.366Z,99.99
2018-07-11T01:01:49.334Z,99.99
2018-07-11T01:02:49.320Z,99.99
2018-07-11T01:03:49.357Z,99.99
2018-07-11T01:04:49.307Z,99.99
2018-07-11T01:05:49.292Z,99.99
2018-07-11T01:06:49.287Z,99.99
2018-07-11T01:07:49.292Z,99.99
2018-07-11T01:08:49.333Z,99.99
2018-07-11T01:09:49.249Z,99.99
2018-07-11T01:10:49.238Z,99.99
2018-07-11T01:11:49.236Z,99.99
2018-07-11T01:12:49.217Z,99.99
2018-07-11T01:13:49.235Z,99.99
2018-07-11T01:14:49.199Z,99.99
2018-07-11T01:15:49.183Z,99.99
2018-07-11T01:16:49.174Z,99.99
2018-07-11T01:17:49.875Z,99.99
2018-07-11T01:18:49.155Z,99.99
2018-07-11T01:19:49.138Z,99.99
2018-07-11T01:20:49.142Z,99.99
2018-07-11T01:21:49.119Z,99.99
2018-07-11T01:22:49.115Z,99.99
2018-07-11T01:23:49.099Z,99.99
2018-07-11T01:24:49.106Z,99.99
2018-07-11T01:25:49.080Z,99.99
2018-07-11T01:26:49.061Z,99.99
2018-07-11T01:27:49.113Z,99.99
2018-07-11T01:28:49.106Z,99.99
2018-07-11T01:29:49.119Z,99.99
2018-07-11T01:30:49.015Z,99.99
2018-07-11T01:31:49.007Z,99.99
2018-07-11T01:32:48.999Z,99.99
2018-07-11T01:33:49.000Z,99.99
2018-07-11T01:34:49.026Z,99.99
2018-07-11T01:35:48.973Z,99.99
2018-07-11T01:36:48.961Z,99.99
2018-07-11T01:37:48.955Z,99.99
2018-07-11T01:38:48.935Z,99.99
2018-07-11T01:39:48.925Z,99.99
2018-07-11T01:40:48.924Z,99.99
2018-07-11T01:41:48.905Z,99.99
2018-07-11T01:42:48.937Z,99.99
2018-07-11T01:43:48.873Z,99.99
2018-07-11T01:44:48.869Z,99.99
2018-07-11T01:45:48.917Z,99.99
2018-07-11T01:46:48.882Z,99.99
2018-07-11T01:47:48.836Z,99.99
2018-07-11T01:48:48.826Z,99.99
2018-07-11T01:49:48.817Z,99.99
2018-07-11T01:50:48.823Z,99.99
2018-07-11T01:51:48.792Z,99.99
2018-07-11T01:52:48.800Z,99.99
2018-07-11T01:53:48.774Z,99.99
2018-07-11T01:54:48.809Z,99.99
2018-07-11T01:55:48.771Z,99.99
2018-07-11T01:56:48.744Z,99.99
2018-07-11T01:57:48.732Z,99.99
2018-07-11T01:58:48.723Z,99.99
2018-07-11T01:59:48.831Z,99.99
2018-07-11T02:00:48.740Z,99.99
2018-07-11T02:01:48.680Z,99.99
2018-07-11T02:02:48.673Z,99.99
2018-07-11T02:03:48.654Z,99.99
2018-07-11T02:04:48.664Z,99.99
2018-07-11T02:05:48.668Z,99.99
2018-07-11T02:06:48.635Z,99.99
2018-07-11T02:07:48.627Z,99.99
2018-07-11T02:08:48.629Z,99.99
2018-07-11T02:09:48.591Z,99.99
2018-07-11T02:10:48.583Z,99.99
2018-07-11T02:11:48.581Z,99.99
2018-07-11T02:12:48.561Z,99.99
2018-07-11T02:13:48.562Z,99.99
2018-07-11T02:14:48.546Z,99.99
2018-07-11T02:15:48.550Z,99.99
2018-07-11T02:16:48.559Z,99.99
2018-07-11T02:17:48.526Z,99.99
2018-07-11T02:18:48.544Z,99.99
2018-07-11T02:19:48.491Z,99.99
2018-07-11T02:20:48.477Z,99.99
2018-07-11T02:21:48.476Z,99.99
2018-07-11T02:22:48.455Z,99.99
2018-07-11T02:23:48.472Z,99.99
2018-07-11T02:24:48.428Z,99.99
2018-07-11T02:25:48.430Z,99.99
2018-07-11T02:26:48.414Z,99.99
2018-07-11T02:27:48.403Z,99.99
2018-07-11T02:28:48.398Z,99.99
2018-07-11T02:29:48.383Z,99.99
2018-07-11T02:30:48.419Z,99.99
2018-07-11T02:31:48.373Z,99.99
2018-07-11T02:32:48.378Z,99.99
2018-07-11T02:33:48.338Z,99.99
2018-07-11T02:34:48.336Z,99.99
2018-07-11T02:35:48.312Z,99.99
2018-07-11T02:36:48.305Z,99.99
2018-07-11T02:37:48.298Z,99.99
2018-07-11T02:38:48.299Z,99.99
2018-07-11T02:39:48.313Z,99.99
2018-07-11T02:40:48.310Z,99.99
2018-07-11T02:41:48.271Z,99.99
2018-07-11T02:42:48.271Z,99.99
2018-07-11T02:43:48.236Z,99.99
2018-07-11T02:44:48.216Z,99.99
2018-07-11T02:45:48.210Z,99.99
2018-07-11T02:46:48.197Z,99.99
2018-07-11T02:47:48.236Z,99.99
2018-07-11T02:48:48.178Z,99.99
2018-07-11T02:49:48.167Z,99.99
2018-07-11T02:50:48.167Z,99.99
2018-07-11T02:51:48.170Z,99.99
2018-07-11T02:52:48.183Z,99.99
2018-07-11T02:53:48.164Z,99.99
2018-07-11T02:54:48.136Z,99.99
2018-07-11T02:55:48.103Z,99.99
2018-07-11T02:56:48.091Z,99.99
2018-07-11T02:57:48.102Z,99.99
2018-07-11T02:58:48.120Z,99.99
2018-07-11T02:59:48.079Z,99.99
2018-07-11T03:00:48.055Z,99.99
2018-07-11T03:01:48.068Z,99.99
2018-07-11T03:02:48.051Z,99.99
2018-07-11T03:03:48.017Z,99.99
2018-07-11T03:04:48.006Z,99.99
2018-07-11T03:05:48.049Z,99.99
2018-07-11T03:06:47.988Z,99.99
2018-07-11T03:07:47.976Z,99.99
2018-07-11T03:08:47.989Z,99.99
2018-07-11T03:09:47.960Z,99.99
2018-07-11T03:10:47.948Z,99.99
2018-07-11T03:11:47.954Z,99.99
2018-07-11T03:12:47.994Z,99.99
2018-07-11T03:13:47.902Z,99.99
2018-07-11T03:14:47.896Z,99.99
2018-07-11T03:15:47.889Z,99.99
2018-07-11T03:16:47.889Z,99.99
2018-07-11T03:17:47.906Z,99.99
2018-07-11T03:18:47.867Z,99.99
2018-07-11T03:19:47.845Z,99.99
2018-07-11T03:20:47.839Z,99.99
2018-07-11T03:21:47.824Z,99.99
2018-07-11T03:22:47.835Z,99.99
2018-07-11T03:23:47.843Z,99.99
2018-07-11T03:24:47.793Z,99.99
2018-07-11T03:25:47.780Z,99.99
2018-07-11T03:26:47.785Z,99.99
2018-07-11T03:27:47.801Z,99.99
2018-07-11T03:28:47.742Z,99.99
2018-07-11T03:29:47.741Z,99.99
2018-07-11T03:30:47.727Z,99.99
2018-07-11T03:31:47.736Z,99.99
2018-07-11T03:32:47.784Z,99.99
2018-07-11T03:33:47.710Z,99.99
2018-07-11T03:34:47.680Z,99.99
2018-07-11T03:35:47.675Z,99.99
2018-07-11T03:36:47.679Z,99.99
2018-07-11T03:37:47.663Z,99.99
2018-07-11T03:38:47.660Z,99.99
2018-07-11T03:39:47.635Z,99.99
2018-07-11T03:40:47.615Z,99.99
2018-07-11T03:41:47.626Z,99.99
2018-07-11T03:42:47.598Z,99.99
2018-07-11T03:43:47.648Z,99.99
2018-07-11T03:44:47.578Z,99.99
2018-07-11T03:45:47.598Z,99.99
2018-07-11T03:46:47.610Z,99.99
2018-07-11T03:47:47.541Z,99.99
2018-07-11T03:48:47.589Z,99.99
2018-07-11T03:49:47.521Z,99.99
2018-07-11T03:50:47.516Z,99.99
2018-07-11T03:51:47.498Z,99.99
2018-07-11T03:52:47.494Z,99.99
2018-07-11T03:53:47.529Z,99.99
2018-07-11T03:54:47.472Z,99.99
2018-07-11T03:55:47.460Z,99.99
2018-07-11T03:56:47.462Z,99.99
2018-07-11T03:57:47.468Z,99.99
2018-07-11T03:58:47.423Z,99.99
2018-07-11T03:59:47.432Z,99.99
2018-07-11T04:00:47.409Z,99.99
2018-07-11T04:01:47.433Z,99.99
2018-07-11T04:02:47.404Z,99.99
2018-07-11T04:03:47.400Z,99.99
2018-07-11T04:04:47.417Z,99.99
2018-07-11T04:05:47.343Z,99.99
2018-07-11T04:06:47.337Z,99.99
2018-07-11T04:07:47.331Z,99.99
2018-07-11T04:08:47.319Z,99.99
2018-07-11T04:09:47.296Z,99.99
2018-07-11T04:10:47.304Z,99.99
2018-07-11T04:11:47.276Z,99.99
2018-07-11T04:12:47.265Z,99.99
2018-07-11T04:13:47.369Z,99.99
2018-07-11T04:14:47.312Z,99.99
2018-07-11T04:15:47.305Z,99.99
2018-07-11T04:16:47.228Z,99.99
2018-07-11T04:17:47.209Z,99.99
2018-07-11T04:18:47.210Z,99.99
2018-07-11T04:19:47.190Z,99.99
2018-07-11T04:20:47.213Z,99.99
2018-07-11T04:21:47.173Z,99.99
2018-07-11T04:22:47.207Z,99.99
2018-07-11T04:23:47.167Z,99.99
2018-07-11T04:24:47.145Z,99.99
2018-07-11T04:25:47.131Z,99.99
2018-07-11T04:26:47.118Z,99.99
2018-07-11T04:27:47.118Z,99.99
2018-07-11T04:28:47.103Z,99.99
2018-07-11T04:29:47.091Z,99.99
2018-07-11T04:30:47.105Z,99.99
2018-07-11T04:31:47.067Z,99.99
2018-07-11T04:32:47.047Z,99.99
2018-07-11T04:33:47.068Z,99.99
2018-07-11T04:34:47.027Z,99.99
2018-07-11T04:35:47.062Z,99.99
2018-07-11T04:36:47.013Z,99.99
2018-07-11T04:37:46.998Z,99.99
2018-07-11T04:38:47.011Z,99.99
2018-07-11T04:39:46.986Z,99.99
2018-07-11T04:40:46.971Z,99.99
2018-07-11T04:41:46.967Z,99.99
2018-07-11T04:42:46.939Z,99.99
2018-07-11T04:43:46.933Z,99.99
2018-07-11T04:44:46.920Z,99.99
2018-07-11T04:45:46.965Z,99.99
2018-07-11T04:46:46.904Z,99.99
2018-07-11T04:47:46.892Z,99.99
2018-07-11T04:48:46.894Z,99.99
2018-07-11T04:49:46.875Z,99.99
2018-07-11T04:50:46.865Z,99.99
2018-07-11T04:51:46.886Z,99.99
2018-07-11T04:52:46.904Z,99.99
2018-07-11T04:53:46.828Z,99.99
2018-07-11T04:54:46.821Z,99.99
2018-07-11T04:55:46.807Z,99.99
2018-07-11T04:56:46.818Z,99.99
2018-07-11T04:57:46.789Z,99.99
2018-07-11T04:58:46.825Z,99.99
2018-07-11T04:59:46.780Z,99.99
2018-07-11T05:00:46.768Z,99.99
2018-07-11T05:01:46.924Z,99.99
2018-07-11T05:02:46.726Z,99.99
2018-07-11T05:03:46.715Z,99.99
2018-07-11T05:04:46.769Z,99.99
2018-07-11T05:05:46.720Z,99.99
2018-07-11T05:06:46.747Z,99.99
2018-07-11T05:07:46.688Z,99.99
2018-07-11T05:08:46.665Z,99.99
2018-07-11T05:09:46.651Z,99.99
2018-07-11T05:10:46.752Z,99.99
2018-07-11T05:11:46.662Z,99.99
2018-07-11T05:12:46.622Z,99.99
2018-07-11T05:13:46.609Z,99.99
2018-07-11T05:14:46.603Z,99.99
2018-07-11T05:15:46.590Z,99.99
2018-07-11T05:16:46.573Z,99.99
2018-07-11T05:17:46.575Z,99.99
2018-07-11T05:18:46.562Z,99.99
2018-07-11T05:19:46.557Z,99.99
2018-07-11T05:20:46.541Z,99.99
2018-07-11T05:21:46.519Z,99.99
2018-07-11T05:22:46.523Z,99.99
2018-07-11T05:23:46.563Z,99.99
2018-07-11T05:24:46.501Z,99.99
2018-07-11T05:25:46.544Z,99.99
2018-07-11T05:26:46.472Z,99.99
2018-07-11T05:27:47.055Z,99.99
2018-07-11T05:28:46.444Z,99.99
2018-07-11T05:29:46.448Z,99.99
2018-07-11T05:30:46.424Z,99.99
2018-07-11T05:31:46.425Z,99.99
2018-07-11T05:32:46.425Z,99.99
2018-07-11T05:33:46.484Z,99.99
2018-07-11T05:34:46.450Z,99.99
2018-07-11T05:35:46.419Z,99.99
2018-07-11T05:36:46.382Z,99.99
2018-07-11T05:37:47.377Z,99.99
2018-07-11T05:38:46.409Z,99.99
2018-07-11T05:39:46.326Z,99.99
2018-07-11T05:40:46.553Z,99.99
2018-07-11T05:41:46.300Z,99.99
2018-07-11T05:42:46.333Z,99.99
2018-07-11T05:43:46.287Z,99.99
2018-07-11T05:44:46.293Z,99.99
2018-07-11T05:45:46.261Z,99.99
2018-07-11T05:46:46.256Z,99.99
2018-07-11T05:47:46.239Z,99.99
2018-07-11T05:48:46.259Z,99.99
2018-07-11T05:49:46.240Z,99.99
2018-07-11T05:50:46.216Z,99.99
2018-07-11T05:51:46.201Z,99.99
2018-07-11T05:52:46.195Z,99.99
2018-07-11T05:53:46.211Z,99.99
2018-07-11T05:54:46.214Z,99.99
2018-07-11T05:55:46.182Z,99.99
2018-07-11T05:56:46.146Z,99.99
2018-07-11T05:57:46.177Z,99.99
2018-07-11T05:58:46.154Z,99.99
2018-07-11T05:59:46.126Z,99.99
2018-07-11T06:00:46.100Z,99.99
2018-07-11T06:01:46.092Z,99.99
2018-07-11T06:02:46.140Z,99.99
2018-07-11T06:03:46.104Z,99.99
2018-07-11T06:04:46.062Z,99.99
2018-07-11T06:05:46.055Z,99.99
2018-07-11T06:06:47.295Z,99.99
2018-07-11T06:07:46.031Z,99.99
2018-07-11T06:08:46.042Z,99.99
2018-07-11T06:09:46.033Z,99.99
2018-07-11T06:10:45.992Z,99.99
2018-07-11T06:11:45.991Z,99.99
2018-07-11T06:12:45.976Z,99.99
2018-07-11T06:13:46.056Z,99.99
2018-07-11T06:14:45.952Z,99.99
2018-07-11T06:15:45.950Z,99.99
2018-07-11T06:16:45.932Z,99.99
2018-07-11T06:17:45.925Z,99.99
2018-07-11T06:18:46.423Z,99.99
2018-07-11T06:19:45.908Z,99.99
2018-07-11T06:20:45.937Z,99.99
2018-07-11T06:21:45.879Z,99.99
2018-07-11T06:22:45.888Z,99.99
2018-07-11T06:23:45.876Z,99.99
2018-07-11T06:24:45.875Z,99.99
2018-07-11T06:25:45.867Z,99.99
2018-07-11T06:26:45.891Z,99.99
2018-07-11T06:27:45.805Z,99.99
2018-07-11T06:28:45.796Z,99.99
2018-07-11T06:29:45.811Z,99.99
2018-07-11T06:30:45.799Z,99.99
2018-07-11T06:31:45.762Z,99.99
2018-07-11T06:32:45.763Z,99.99
2018-07-11T06:33:45.765Z,99.99
2018-07-11T06:34:45.752Z,99.99
2018-07-11T06:35:45.728Z,99.99
2018-07-11T06:36:45.711Z,99.99
2018-07-11T06:37:45.715Z,99.99
2018-07-11T06:38:45.686Z,99.99
2018-07-11T06:39:45.712Z,99.99
2018-07-11T06:40:45.685Z,99.99
2018-07-11T06:41:46.181Z,99.99
2018-07-11T06:42:45.649Z,99.99
2018-07-11T06:43:45.641Z,99.99
2018-07-11T06:44:45.645Z,99.99
2018-07-11T06:45:45.612Z,99.99
2018-07-11T06:46:45.599Z,99.99
2018-07-11T06:47:45.604Z,99.99
2018-07-11T06:48:45.588Z,99.99
2018-07-11T06:49:45.597Z,99.99
2018-07-11T06:50:45.573Z,99.99
2018-07-11T06:51:45.547Z,99.99
2018-07-11T06:52:45.538Z,99.99
2018-07-11T06:53:45.542Z,99.99
2018-07-11T06:54:45.563Z,99.99
2018-07-11T06:55:45.510Z,99.99
2018-07-11T06:56:45.494Z,99.99
2018-07-11T06:57:45.499Z,99.99
2018-07-11T06:58:45.473Z,99.99
2018-07-11T06:59:45.457Z,99.99
2018-07-11T07:00:45.475Z,99.99
2018-07-11T07:01:45.466Z,99.69
2018-07-11T07:02:45.468Z,99.99
2018-07-11T07:03:45.437Z,99.44
2018-07-11T07:04:45.410Z,98.73
2018-07-11T07:05:45.415Z,98.68
2018-07-11T07:06:45.392Z,98.97
2018-07-11T07:07:45.389Z,99.99
2018-07-11T07:08:45.429Z,99.99
2018-07-11T07:09:45.404Z,99.94
2018-07-11T07:10:45.354Z,99.99
2018-07-11T07:11:45.372Z,99.99
2018-07-11T07:12:45.317Z,99.94
2018-07-11T07:13:45.309Z,99.84
2018-07-11T07:14:45.310Z,99.84
2018-07-11T07:15:45.307Z,99.99
2018-07-11T07:16:45.310Z,99.74
2018-07-11T07:17:45.263Z,99.99
2018-07-11T07:18:45.251Z,99.99
2018-07-11T07:19:45.249Z,99.43
2018-07-11T07:20:45.257Z,99.58
2018-07-11T07:21:45.220Z,99.89
2018-07-11T07:22:45.230Z,99.99
2018-07-11T07:23:45.225Z,99.95
2018-07-11T07:24:45.189Z,99.99
2018-07-11T07:25:45.181Z,99.99
2018-07-11T07:26:45.183Z,99.99
2018-07-11T07:27:45.201Z,99.99
2018-07-11T07:28:45.146Z,99.99
2018-07-11T07:29:45.134Z,99.50
2018-07-11T07:30:45.128Z,97.98
2018-07-11T07:31:45.110Z,98.24
2018-07-11T07:32:45.114Z,96.72
2018-07-11T07:33:45.108Z,98.39
2018-07-11T07:34:45.151Z,96.07
2018-07-11T07:35:45.066Z,97.08
2018-07-11T07:36:45.118Z,97.18
2018-07-11T07:37:45.076Z,97.49
2018-07-11T07:38:45.046Z,98.60
2018-07-11T07:39:45.032Z,98.39
2018-07-11T07:40:45.076Z,97.89
2018-07-11T07:41:45.021Z,97.74
2018-07-11T07:42:45.031Z,97.14
2018-07-11T07:43:45.015Z,97.80
2018-07-11T07:44:45.059Z,96.58
2018-07-11T07:45:44.977Z,96.69
2018-07-11T07:46:44.955Z,95.57
2018-07-11T07:47:44.968Z,95.98
2018-07-11T07:48:44.933Z,94.76
2018-07-11T07:49:44.939Z,94.96
2018-07-11T07:50:44.913Z,95.87
2018-07-11T07:51:44.901Z,93.85
2018-07-11T07:52:44.968Z,92.94
2018-07-11T07:53:44.886Z,94.86
2018-07-11T07:54:44.867Z,96.08
2018-07-11T07:55:44.852Z,94.66
2018-07-11T07:56:44.876Z,95.47
2018-07-11T07:57:44.857Z,92.29
2018-07-11T07:58:44.852Z,94.06
2018-07-11T07:59:44.860Z,90.21
2018-07-11T08:00:44.801Z,92.38
2018-07-11T08:01:44.789Z,91.53
2018-07-11T08:02:44.795Z,92.33
2018-07-11T08:03:44.787Z,93.95
2018-07-11T08:04:44.778Z,93.75
2018-07-11T08:05:44.787Z,91.93
2018-07-11T08:06:44.739Z,90.41
2018-07-11T08:07:44.729Z,93.04
2018-07-11T08:08:44.728Z,92.99
2018-07-11T08:09:44.705Z,94.26
2018-07-11T08:10:44.699Z,90.11
2018-07-11T08:11:44.687Z,93.04
2018-07-11T08:12:44.751Z,93.04
2018-07-11T08:13:44.693Z,92.88
2018-07-11T08:14:44.653Z,90.36
2018-07-11T08:15:44.636Z,91.92
2018-07-11T08:16:44.627Z,92.83
2018-07-11T08:17:44.623Z,92.93
2018-07-11T08:18:44.621Z,94.95
2018-07-11T08:19:44.629Z,93.74
2018-07-11T08:20:44.585Z,94.40
2018-07-11T08:21:44.572Z,94.30
2018-07-11T08:22:44.577Z,94.71
2018-07-11T08:23:44.555Z,95.17
2018-07-11T08:24:44.546Z,91.93
2018-07-11T08:25:44.537Z,91.69
2018-07-11T08:26:44.572Z,91.63
2018-07-11T08:27:44.519Z,91.32
2018-07-11T08:28:44.547Z,91.63
2018-07-11T08:29:44.495Z,91.99
2018-07-11T08:30:44.480Z,92.09
2018-07-11T08:31:44.480Z,90.83
2018-07-11T08:32:44.455Z,88.55
2018-07-11T08:33:44.442Z,88.92
2018-07-11T08:34:44.513Z,91.03
2018-07-11T08:35:44.418Z,90.69
2018-07-11T08:36:44.416Z,90.49
2018-07-11T08:37:44.408Z,89.07
2018-07-11T08:38:44.395Z,89.07
2018-07-11T08:39:44.399Z,88.57
2018-07-11T08:40:44.377Z,87.86
2018-07-11T08:41:44.410Z,85.34
2018-07-11T08:42:44.382Z,87.01
2018-07-11T08:43:44.392Z,90.34
2018-07-11T08:44:44.399Z,90.10
2018-07-11T08:45:44.359Z,88.89
2018-07-11T08:46:44.352Z,91.27
2018-07-11T08:47:44.364Z,87.18
2018-07-11T08:48:44.282Z,86.63
2018-07-11T08:49:44.308Z,86.47
2018-07-11T08:50:44.286Z,86.47
2018-07-11T08:51:44.261Z,89.05
2018-07-11T08:52:44.242Z,90.06
2018-07-11T08:53:44.236Z,88.85
2018-07-11T08:54:44.215Z,86.73
2018-07-11T08:55:44.232Z,90.06
2018-07-11T08:56:44.212Z,86.43
2018-07-11T08:57:44.185Z,87.94
2018-07-11T08:58:44.170Z,84.85
2018-07-11T08:59:44.159Z,85.76
2018-07-11T09:00:44.176Z,89.13
2018-07-11T09:01:44.142Z,89.39
2018-07-11T09:02:44.172Z,81.05
2018-07-11T09:03:44.132Z,84.12
2018-07-11T09:04:44.112Z,88.67
2018-07-11T09:05:44.095Z,87.66
2018-07-11T09:06:44.106Z,88.77
2018-07-11T09:07:44.105Z,83.62
2018-07-11T09:08:44.086Z,88.26
2018-07-11T09:09:44.057Z,88.23
2018-07-11T09:10:44.049Z,88.48
2018-07-11T09:11:44.031Z,85.66
2018-07-11T09:12:44.019Z,84.11
2018-07-11T09:13:44.011Z,85.52
2018-07-11T09:14:44.011Z,87.63
2018-07-11T09:15:44.001Z,85.17
2018-07-11T09:16:44.010Z,86.99
2018-07-11T09:17:43.984Z,84.37
2018-07-11T09:18:43.958Z,85.48
2018-07-11T09:19:43.949Z,83.46
2018-07-11T09:20:43.933Z,88.56
2018-07-11T09:21:43.950Z,82.42
2018-07-11T09:22:43.919Z,81.21
2018-07-11T09:23:43.927Z,80.26
2018-07-11T09:24:43.897Z,79.36
2018-07-11T09:25:43.885Z,79.25
2018-07-11T09:26:43.904Z,79.62
2018-07-11T09:27:43.870Z,82.64
2018-07-11T09:28:43.855Z,82.24
2018-07-11T09:29:43.839Z,83.34
2018-07-11T09:30:43.832Z,81.33
2018-07-11T09:31:43.821Z,83.04
2018-07-11T09:32:43.823Z,84.95
2018-07-11T09:33:43.834Z,82.94
2018-07-11T09:34:43.834Z,85.76
2018-07-11T09:35:43.782Z,79.11
2018-07-11T09:36:43.768Z,84.81
2018-07-11T09:37:43.795Z,83.11
2018-07-11T09:38:43.754Z,78.88
2018-07-11T09:39:43.750Z,82.06
2018-07-11T09:40:43.752Z,77.23
2018-07-11T09:41:43.719Z,76.59
2018-07-11T09:42:43.721Z,75.85
2018-07-11T09:43:43.695Z,74.81
2018-07-11T09:44:43.683Z,74.15
2018-07-11T09:45:43.673Z,74.31
2018-07-11T09:46:43.668Z,76.56
2018-07-11T09:47:43.682Z,77.70
2018-07-11T09:48:43.642Z,78.46
2018-07-11T09:49:43.647Z,77.21
2018-07-11T09:50:43.618Z,71.26
2018-07-11T09:51:43.605Z,71.73
2018-07-11T09:52:43.897Z,68.92
2018-07-11T09:53:43.654Z,68.32
2018-07-11T09:54:44.359Z,71.46
2018-07-11T09:55:43.626Z,74.87
2018-07-11T09:56:43.558Z,69.26
2018-07-11T09:57:43.573Z,73.50
2018-07-11T09:58:43.535Z,70.83
2018-07-11T09:59:43.532Z,73.47
2018-07-11T10:00:43.516Z,71.26
2018-07-11T10:01:43.515Z,76.54
2018-07-11T10:02:44.415Z,75.60
2018-07-11T10:03:43.490Z,69.09
2018-07-11T10:04:43.471Z,71.30
2018-07-11T10:05:43.467Z,70.50
2018-07-11T10:06:43.456Z,66.99
2018-07-11T10:07:43.445Z,63.47
2018-07-11T10:08:43.435Z,69.62
2018-07-11T10:09:43.419Z,70.50
2018-07-11T10:10:43.438Z,69.99
2018-07-11T10:11:43.397Z,64.54
2018-07-11T10:12:43.389Z,65.58
2018-07-11T10:13:43.387Z,68.08
2018-07-11T10:14:43.373Z,66.18
2018-07-11T10:15:43.362Z,66.99
2018-07-11T10:16:43.359Z,66.88
2018-07-11T10:17:43.374Z,64.68
2018-07-11T10:18:43.362Z,65.98
2018-07-11T10:19:43.342Z,64.68
2018-07-11T10:20:43.354Z,69.32
2018-07-11T10:21:43.341Z,70.93
2018-07-11T10:22:43.283Z,67.61
2018-07-11T10:23:43.293Z,74.74
2018-07-11T10:24:43.298Z,69.89
2018-07-11T10:25:43.273Z,68.79
2018-07-11T10:26:43.254Z,66.68
2018-07-11T10:27:43.237Z,66.99
2018-07-11T10:28:43.229Z,64.07
2018-07-11T10:29:43.222Z,67.08
2018-07-11T10:30:43.200Z,66.99
2018-07-11T10:31:43.199Z,66.75
2018-07-11T10:32:43.202Z,67.18
2018-07-11T10:33:43.217Z,67.58
2018-07-11T10:34:43.159Z,68.39
2018-07-11T10:35:43.150Z,70.66
2018-07-11T10:36:43.147Z,69.35
2018-07-11T10:37:43.135Z,70.06
2018-07-11T10:38:43.125Z,64.07
2018-07-11T10:39:43.108Z,68.89
2018-07-11T10:40:43.115Z,68.08
2018-07-11T10:41:43.091Z,70.50
2018-07-11T10:42:43.086Z,67.42
2018-07-11T10:43:43.097Z,64.21
2018-07-11T10:44:43.065Z,67.11
2018-07-11T10:45:43.046Z,70.93
2018-07-11T10:46:43.041Z,64.11
2018-07-11T10:47:43.028Z,67.75
2018-07-11T10:48:43.027Z,69.49
2018-07-11T10:49:43.003Z,68.32
2018-07-11T10:50:42.990Z,65.73
2018-07-11T10:51:42.981Z,68.38
2018-07-11T10:52:42.973Z,70.12
2018-07-11T10:53:43.065Z,72.31
2018-07-11T10:54:42.959Z,70.12
2018-07-11T10:55:42.965Z,76.81
2018-07-11T10:56:42.936Z,70.86
2018-07-11T10:57:43.079Z,73.42
2018-07-11T10:58:42.905Z,70.59
2018-07-11T10:59:42.899Z,72.44
2018-07-11T11:01:05.022Z,71.03
2018-07-11T11:01:42.879Z,72.68
2018-07-11T11:02:42.982Z,72.58
2018-07-11T11:03:42.878Z,74.49
2018-07-11T11:04:42.925Z,72.81
2018-07-11T11:05:42.929Z,74.43
2018-07-11T11:06:42.920Z,72.41
2018-07-11T11:07:42.820Z,77.56
2018-07-11T11:08:42.802Z,73.62
2018-07-11T11:09:42.795Z,75.04
2018-07-11T11:10:42.776Z,78.77
2018-07-11T11:11:42.777Z,80.19
2018-07-11T11:12:42.772Z,75.34
2018-07-11T11:13:42.754Z,79.08
2018-07-11T11:14:42.787Z,77.56
2018-07-11T11:15:42.732Z,77.86
2018-07-11T11:16:42.717Z,76.65
2018-07-11T11:17:42.707Z,74.46
2018-07-11T11:18:42.691Z,77.95
2018-07-11T11:19:42.752Z,76.54
2018-07-11T11:20:42.675Z,71.67
2018-07-11T11:21:42.661Z,71.26
2018-07-11T11:22:42.648Z,73.25
2018-07-11T11:23:42.637Z,72.34
2018-07-11T11:24:42.628Z,76.70
2018-07-11T11:25:42.641Z,70.83
2018-07-11T11:26:42.630Z,69.99
2018-07-11T11:27:42.603Z,70.76
2018-07-11T11:28:42.588Z,67.91
2018-07-11T11:29:42.576Z,65.80
2018-07-11T11:30:42.564Z,63.90
2018-07-11T11:31:42.553Z,67.08
2018-07-11T11:32:42.546Z,66.08
2018-07-11T11:33:42.537Z,65.77
2018-07-11T11:34:42.575Z,66.78
2018-07-11T11:35:42.588Z,63.79
2018-07-11T11:36:42.504Z,67.11
2018-07-11T11:37:42.491Z,68.41
2018-07-11T11:38:42.483Z,67.24
2018-07-11T11:39:42.474Z,65.84
2018-07-11T11:40:42.479Z,66.84
2018-07-11T11:41:42.537Z,68.38
2018-07-11T11:42:42.485Z,67.98
2018-07-11T11:43:42.431Z,68.91
2018-07-11T11:44:42.414Z,69.72
2018-07-11T11:45:42.434Z,72.24
2018-07-11T11:46:42.397Z,72.37
2018-07-11T11:47:42.386Z,68.04
2018-07-11T11:48:42.374Z,71.47
2018-07-11T11:49:42.363Z,71.26
2018-07-11T11:50:42.348Z,72.71
2018-07-11T11:51:42.351Z,72.81
2018-07-11T11:52:42.364Z,75.02
2018-07-11T11:53:42.321Z,71.70
2018-07-11T11:54:42.330Z,70.70
2018-07-11T11:55:42.322Z,71.70
2018-07-11T11:56:43.179Z,71.80
2018-07-11T11:57:42.411Z,74.73
2018-07-11T11:58:42.271Z,69.69
2018-07-11T11:59:42.275Z,71.97
2018-07-11T12:00:42.244Z,69.85
2018-07-11T12:01:42.325Z,70.76
2018-07-11T12:02:42.217Z,71.56
2018-07-11T12:03:42.209Z,71.87
2018-07-11T12:04:42.203Z,72.51
2018-07-11T12:05:42.189Z,73.45
2018-07-11T12:06:42.198Z,75.16
2018-07-11T12:07:42.168Z,74.76
2018-07-11T12:08:42.157Z,78.63
2018-07-11T12:09:42.146Z,75.20
2018-07-11T12:10:42.138Z,77.92
2018-07-11T12:11:42.174Z,80.54
2018-07-11T12:12:42.115Z,77.95
2018-07-11T12:13:42.102Z,81.93
2018-07-11T12:14:42.093Z,80.62
2018-07-11T12:15:42.077Z,81.22
2018-07-11T12:16:42.079Z,87.12
2018-07-11T12:17:42.170Z,83.68
2018-07-11T12:18:42.063Z,86.10
2018-07-11T12:19:42.044Z,86.35
2018-07-11T12:20:42.029Z,89.28
2018-07-11T12:21:42.016Z,88.51
2018-07-11T12:22:42.073Z,90.67
2018-07-11T12:23:42.027Z,92.09
2018-07-11T12:24:41.986Z,92.33
2018-07-11T12:25:41.987Z,93.04
2018-07-11T12:26:41.965Z,94.60
2018-07-11T12:27:41.980Z,95.92
2018-07-11T12:28:41.943Z,95.86
2018-07-11T12:29:41.974Z,96.07
2018-07-11T12:30:41.924Z,96.78
2018-07-11T12:31:41.924Z,98.09
2018-07-11T12:32:41.909Z,97.99
2018-07-11T12:33:41.931Z,98.29
2018-07-11T12:34:41.872Z,98.19
2018-07-11T12:35:41.905Z,98.35
2018-07-11T12:36:41.860Z,97.94
2018-07-11T12:37:41.903Z,97.54
2018-07-11T12:38:41.874Z,97.69
2018-07-11T12:39:41.836Z,97.29
2018-07-11T12:40:41.828Z,96.74
2018-07-11T12:41:41.853Z,96.34
2018-07-11T12:42:41.842Z,96.03
2018-07-11T12:43:41.786Z,96.84
2018-07-11T12:44:41.772Z,96.80
2018-07-11T12:45:41.762Z,97.50
2018-07-11T12:46:41.746Z,97.20
2018-07-11T12:47:41.761Z,97.10
2018-07-11T12:48:41.734Z,95.38
2018-07-11T12:49:41.719Z,96.03
2018-07-11T12:50:41.708Z,96.29
2018-07-11T12:51:41.706Z,96.69
2018-07-11T12:52:41.707Z,96.49